createdAt,value
2022-10-16T00:02:03.973Z,6.05
2022-10-16T00:07:05.562Z,2.85
2022-10-16T00:12:07.260Z,2.65
2022-10-16T00:17:08.802Z,1.42
2022-10-16T00:22:10.399Z,2.70
2022-10-16T00:27:11.934Z,2.35
2022-10-16T00:32:13.541Z,2.17
2022-10-16T00:37:15.150Z,4.25
2022-10-16T00:42:19.467Z,2.17
2022-10-16T00:47:27.971Z,1.88
2022-10-16T00:52:29.821Z,2.25
2022-10-16T00:57:31.515Z,1.52
2022-10-16T01:02:33.049Z,2.05
2022-10-16T01:07:52.270Z,2.65
2022-10-16T01:13:14.659Z,4.20
2022-10-16T01:18:39.061Z,3.17
2022-10-16T01:23:58.856Z,4.32
2022-10-16T01:29:40.347Z,3.13
2022-10-16T01:34:59.877Z,4.32
2022-10-16T01:40:06.329Z,3.05
2022-10-16T01:45:10.342Z,4.22
2022-10-16T01:50:15.063Z,4.90
2022-10-16T01:55:23.185Z,4.80
2022-10-16T02:00:26.055Z,10.35
2022-10-16T02:05:33.431Z,6.22
2022-10-16T02:10:37.003Z,5.72
2022-10-16T02:15:38.600Z,6.85
2022-10-16T02:21:09.698Z,5.85
2022-10-16T02:26:16.235Z,6.10
2022-10-16T02:31:25.926Z,7.03
2022-10-16T02:36:28.344Z,6.63
2022-10-16T02:41:30.038Z,6.13
2022-10-16T02:46:31.605Z,5.88
2022-10-16T02:51:33.092Z,8.13
2022-10-16T02:56:34.689Z,3.72
2022-10-16T03:01:37.014Z,4.78
2022-10-16T03:06:38.718Z,4.00
2022-10-16T03:11:40.268Z,4.78
2022-10-16T03:16:42.078Z,4.57
2022-10-16T03:21:43.811Z,5.15
2022-10-16T03:26:45.367Z,4.97
2022-10-16T03:31:46.879Z,4.60
2022-10-16T03:36:48.431Z,8.40
2022-10-16T03:41:49.989Z,3.97
2022-10-16T03:46:51.512Z,3.50
2022-10-16T03:51:53.074Z,3.40
2022-10-16T03:56:54.594Z,3.13
2022-10-16T04:01:56.117Z,4.43
2022-10-16T04:06:57.616Z,4.32
2022-10-16T04:11:59.174Z,2.28
2022-10-16T04:17:00.769Z,4.35
2022-10-16T04:22:03.364Z,2.55
2022-10-16T04:27:05.023Z,2.55
2022-10-16T04:32:08.740Z,2.00
2022-10-16T04:37:10.282Z,1.65
2022-10-16T04:42:12.172Z,2.13
2022-10-16T04:47:14.240Z,2.05
2022-10-16T04:52:15.741Z,2.63
2022-10-16T04:57:17.886Z,2.15
2022-10-16T05:02:19.541Z,2.58
2022-10-16T05:07:21.163Z,2.00
2022-10-16T05:12:22.721Z,2.88
2022-10-16T05:17:24.583Z,2.47
2022-10-16T05:22:26.421Z,2.10
2022-10-16T05:27:28.336Z,2.80
2022-10-16T05:32:29.998Z,3.45
2022-10-16T05:37:31.602Z,4.57
2022-10-16T05:42:33.102Z,2.75
2022-10-16T05:47:34.629Z,4.32
2022-10-16T05:52:36.463Z,2.50
2022-10-16T05:57:37.983Z,2.75
2022-10-16T06:02:39.536Z,2.95
2022-10-16T06:07:41.048Z,4.00
2022-10-16T06:12:42.541Z,3.50
2022-10-16T06:17:44.205Z,3.15
2022-10-16T06:22:45.700Z,3.95
2022-10-16T06:27:47.247Z,3.65
2022-10-16T06:32:48.799Z,3.47
2022-10-16T06:37:50.429Z,7.00
2022-10-16T06:42:51.940Z,3.47
2022-10-16T06:47:53.487Z,3.42
2022-10-16T06:52:57.976Z,3.63
2022-10-16T06:58:00.461Z,3.72
2022-10-16T07:03:01.997Z,3.72
2022-10-16T07:08:03.559Z,3.72
2022-10-16T07:13:05.024Z,2.10
2022-10-16T07:18:06.675Z,2.67
2022-10-16T07:23:08.243Z,2.63
2022-10-16T07:28:09.827Z,2.40
2022-10-16T07:33:11.311Z,3.95
2022-10-16T07:38:13.025Z,2.45
2022-10-16T07:43:15.229Z,7.40
2022-10-16T07:48:18.124Z,4.38
2022-10-16T07:53:22.420Z,5.22
2022-10-16T07:58:27.296Z,7.20
2022-10-16T08:03:28.833Z,4.32
2022-10-16T08:08:31.132Z,5.03
2022-10-16T08:13:33.298Z,4.85
2022-10-16T08:18:39.638Z,4.10
2022-10-16T08:28:43.059Z,3.17
2022-10-16T08:33:46.105Z,1.92
2022-10-16T08:38:51.333Z,3.05
2022-10-16T08:44:04.719Z,2.57
2022-10-16T08:49:12.910Z,1.70
2022-10-16T08:54:32.463Z,0.82
2022-10-16T08:59:34.021Z,2.40
2022-10-16T09:04:56.819Z,1.85
2022-10-16T09:10:22.354Z,0.57
2022-10-16T09:15:30.993Z,0.60
2022-10-16T09:21:07.533Z,1.05
2022-10-16T09:31:20.187Z,3.53
2022-10-16T09:36:24.163Z,1.00
2022-10-16T09:41:25.809Z,0.90
2022-10-16T09:46:33.226Z,4.05
2022-10-16T09:51:37.304Z,1.10
2022-10-16T09:56:39.130Z,1.50
2022-10-16T10:01:42.668Z,2.35
2022-10-16T10:06:48.354Z,2.38
2022-10-16T10:11:54.059Z,2.15
2022-10-16T10:17:07.697Z,1.83
2022-10-16T10:22:30.677Z,1.02
2022-10-16T10:28:01.824Z,1.92
2022-10-16T10:33:20.048Z,1.65
2022-10-16T10:38:27.320Z,1.10
2022-10-16T10:43:50.448Z,0.50
2022-10-16T10:48:57.875Z,1.05
2022-10-16T10:54:31.842Z,2.88
2022-10-16T11:00:02.478Z,1.00
2022-10-16T11:05:32.197Z,1.05
2022-10-16T11:11:04.395Z,1.27
2022-10-16T11:16:28.438Z,1.90
2022-10-16T11:21:37.244Z,1.95
2022-10-16T11:26:43.574Z,1.33
2022-10-16T11:31:53.590Z,2.78
2022-10-16T11:37:20.437Z,1.75
2022-10-16T11:42:22.243Z,1.88
2022-10-16T11:53:22.801Z,1.75
2022-10-16T11:58:32.403Z,1.92
2022-10-16T12:03:37.598Z,2.85
2022-10-16T12:08:39.465Z,0.73
2022-10-16T12:13:42.241Z,0.63
2022-10-16T12:18:50.723Z,1.45
2022-10-16T12:23:55.644Z,3.22
2022-10-16T12:29:11.750Z,1.27
2022-10-16T12:34:27.367Z,2.80
2022-10-16T12:44:36.002Z,1.02
2022-10-16T12:49:38.856Z,1.48
2022-10-16T12:54:40.431Z,0.93
2022-10-16T13:00:23.146Z,1.75
2022-10-16T13:06:07.940Z,0.95
2022-10-16T13:11:37.564Z,1.05
2022-10-16T13:17:02.583Z,1.20
2022-10-16T13:22:12.648Z,0.85
2022-10-16T13:27:35.158Z,1.38
2022-10-16T13:32:37.259Z,1.17
2022-10-16T13:37:38.783Z,0.75
2022-10-16T13:42:41.289Z,0.30
2022-10-16T13:47:42.783Z,1.95
2022-10-16T13:52:45.298Z,2.30
2022-10-16T13:57:46.912Z,1.38
2022-10-16T14:03:03.125Z,1.10
2022-10-16T14:08:04.764Z,2.88
2022-10-16T14:13:08.148Z,0.73
2022-10-16T14:18:19.725Z,3.35
2022-10-16T14:23:41.369Z,0.50
2022-10-16T14:28:44.118Z,1.13
2022-10-16T14:33:45.870Z,1.00
2022-10-16T14:38:59.647Z,0.73
2022-10-16T14:44:05.358Z,0.98
2022-10-16T14:49:09.785Z,0.55
2022-10-16T14:54:17.843Z,0.45
2022-10-16T14:59:37.060Z,0.63
2022-10-16T15:04:38.932Z,0.45
2022-10-16T15:09:48.120Z,1.15
2022-10-16T15:14:51.300Z,0.40
2022-10-16T15:19:52.927Z,0.90
2022-10-16T15:24:54.453Z,1.50
2022-10-16T15:29:55.997Z,0.77
2022-10-16T15:34:57.517Z,0.73
2022-10-16T15:39:59.004Z,2.38
2022-10-16T15:45:00.538Z,0.50
2022-10-16T15:50:02.155Z,1.08
2022-10-16T15:55:03.950Z,1.40
2022-10-16T16:00:10.408Z,4.85
2022-10-16T16:05:15.142Z,1.70
2022-10-16T16:10:17.332Z,1.58
2022-10-16T16:15:23.355Z,2.50
2022-10-16T16:20:24.846Z,3.22
2022-10-16T16:25:26.334Z,1.70
2022-10-16T16:30:28.407Z,1.85
2022-10-16T16:35:30.160Z,1.98
2022-10-16T16:40:31.664Z,1.60
2022-10-16T16:45:36.751Z,1.92
2022-10-16T16:50:38.531Z,2.15
2022-10-16T16:55:40.044Z,1.88
2022-10-16T17:00:56.564Z,3.33
2022-10-16T17:06:04.608Z,3.03
2022-10-16T17:11:07.231Z,2.70
2022-10-16T17:16:09.481Z,2.38
2022-10-16T17:21:11.141Z,3.05
2022-10-16T17:26:15.493Z,1.63
2022-10-16T17:31:20.169Z,12.25
2022-10-16T17:36:22.542Z,2.00
2022-10-16T17:41:24.452Z,2.42
2022-10-16T17:46:26.442Z,1.35
2022-10-16T17:51:30.907Z,1.83
2022-10-16T17:56:32.639Z,2.80
2022-10-16T18:01:36.803Z,1.92
2022-10-16T18:06:39.223Z,1.88
2022-10-16T18:11:40.992Z,1.75
2022-10-16T18:16:43.454Z,1.95
2022-10-16T18:21:45.749Z,2.42
2022-10-16T18:26:50.277Z,2.25
2022-10-16T18:31:52.716Z,2.47
2022-10-16T18:36:55.119Z,4.85
2022-10-16T18:41:56.749Z,3.00
2022-10-16T18:46:58.330Z,2.47
2022-10-16T18:51:59.856Z,3.55
2022-10-16T18:57:01.613Z,3.00
2022-10-16T19:02:03.270Z,1.40
2022-10-16T19:07:04.813Z,3.65
2022-10-16T19:12:06.511Z,2.08
2022-10-16T19:17:08.337Z,3.35
2022-10-16T19:22:09.868Z,2.13
2022-10-16T19:27:11.364Z,11.82
2022-10-16T19:32:12.889Z,2.35
2022-10-16T19:37:14.543Z,2.30
2022-10-16T19:42:16.051Z,4.35
2022-10-16T19:47:19.624Z,2.58
2022-10-16T19:52:23.795Z,2.80
2022-10-16T19:57:26.358Z,3.33
2022-10-16T20:02:28.227Z,3.20
2022-10-16T20:07:32.717Z,4.22
2022-10-16T20:12:36.373Z,3.47
2022-10-16T20:17:37.898Z,3.45
2022-10-16T20:22:39.493Z,8.77
2022-10-16T20:27:41.126Z,4.07
2022-10-16T20:32:42.614Z,4.15
2022-10-16T20:37:44.215Z,4.35
2022-10-16T20:42:45.910Z,3.80
2022-10-16T20:47:47.418Z,4.25
2022-10-16T20:57:55.642Z,6.75
2022-10-16T21:02:57.121Z,6.25
2022-10-16T21:07:58.717Z,5.22
2022-10-16T21:13:00.242Z,7.10
2022-10-16T21:18:02.203Z,6.30
2022-10-16T21:23:03.708Z,6.50
2022-10-16T21:28:05.262Z,6.05
2022-10-16T21:33:06.766Z,8.43
2022-10-16T21:38:08.305Z,6.32
2022-10-16T21:43:09.836Z,9.02
2022-10-16T21:48:11.406Z,10.68
2022-10-16T21:53:13.118Z,8.18
2022-10-16T21:58:14.643Z,8.85
2022-10-16T22:03:16.158Z,8.88
2022-10-16T22:08:17.662Z,10.60
2022-10-16T22:13:19.370Z,11.30
2022-10-16T22:18:20.860Z,10.93
2022-10-16T22:23:22.535Z,10.65
2022-10-16T22:28:24.061Z,11.77
2022-10-16T22:33:25.739Z,11.98
2022-10-16T22:38:31.546Z,11.30
2022-10-16T22:43:38.364Z,12.25
2022-10-16T22:48:40.283Z,11.45
2022-10-16T22:53:42.083Z,12.85
2022-10-16T22:58:44.302Z,11.05
2022-10-16T23:03:45.896Z,11.88
2022-10-16T23:08:52.034Z,14.05
2022-10-16T23:13:53.754Z,13.05
2022-10-16T23:18:55.308Z,12.63
2022-10-16T23:23:56.869Z,14.95
2022-10-16T23:28:58.562Z,13.25
2022-10-16T23:34:00.188Z,12.65
2022-10-16T23:39:01.714Z,14.90
2022-10-16T23:44:03.613Z,16.38
2022-10-16T23:49:05.139Z,13.43
2022-10-16T23:54:06.631Z,14.43
2022-10-16T23:59:08.387Z,15.20
